createdAt,value
2023-02-19T00:05:01.856Z,9.95
2023-02-19T00:11:04.278Z,9.27
2023-02-19T00:17:05.764Z,8.15
2023-02-19T00:23:07.279Z,8.90
2023-02-19T00:29:12.113Z,7.83
2023-02-19T00:35:13.654Z,7.65
2023-02-19T00:41:21.159Z,7.83
2023-02-19T00:47:22.834Z,9.50
2023-02-19T00:53:24.276Z,8.07
2023-02-19T00:59:25.738Z,12.03
2023-02-19T01:05:27.186Z,10.48
2023-02-19T01:11:29.109Z,15.50
2023-02-19T01:17:30.613Z,19.60
2023-02-19T01:23:32.098Z,19.10
2023-02-19T01:29:33.561Z,14.25
2023-02-19T01:35:38.218Z,19.58
2023-02-19T01:41:40.432Z,15.13
2023-02-19T01:47:41.938Z,18.73
2023-02-19T01:53:45.066Z,19.67
2023-02-19T01:59:47.801Z,16.42
2023-02-19T02:06:15.632Z,14.93
2023-02-19T02:12:17.175Z,16.33
2023-02-19T02:18:28.051Z,12.32
2023-02-19T02:24:32.516Z,14.43
2023-02-19T02:30:37.805Z,11.65
2023-02-19T02:36:41.303Z,8.77
2023-02-19T02:42:45.326Z,6.70
2023-02-19T02:48:53.857Z,5.20
2023-02-19T02:55:04.881Z,5.60
2023-02-19T03:01:33.104Z,3.70
2023-02-19T03:07:58.147Z,6.90
2023-02-19T03:14:21.645Z,7.57
2023-02-19T03:20:24.122Z,4.40
2023-02-19T03:26:26.256Z,4.70
2023-02-19T03:32:36.328Z,9.18
2023-02-19T03:38:42.368Z,7.22
2023-02-19T03:44:58.622Z,6.17
2023-02-19T03:51:05.334Z,3.35
2023-02-19T03:57:10.855Z,5.53
2023-02-19T04:03:32.071Z,4.30
2023-02-19T04:09:37.335Z,2.47
2023-02-19T04:15:45.186Z,3.80
2023-02-19T04:21:46.675Z,9.30
2023-02-19T04:27:48.560Z,4.57
2023-02-19T04:33:50.020Z,4.25
2023-02-19T04:39:51.508Z,11.82
2023-02-19T04:45:53.012Z,6.33
2023-02-19T04:51:54.497Z,3.42
2023-02-19T04:57:55.934Z,4.07
2023-02-19T05:03:57.603Z,1.67
2023-02-19T05:09:59.718Z,1.40
2023-02-19T05:16:02.338Z,2.30
2023-02-19T05:22:03.818Z,4.40
2023-02-19T05:28:17.362Z,4.70
2023-02-19T05:34:18.839Z,4.85
2023-02-19T05:40:20.281Z,6.03
2023-02-19T05:46:22.977Z,8.40
2023-02-19T05:52:24.864Z,10.15
2023-02-19T05:58:26.570Z,5.57
2023-02-19T06:04:28.023Z,6.28
2023-02-19T06:10:29.497Z,6.85
2023-02-19T06:16:33.178Z,5.50
2023-02-19T06:22:34.666Z,5.95
2023-02-19T06:28:36.726Z,6.27
2023-02-19T06:34:38.170Z,8.00
2023-02-19T06:40:39.626Z,5.97
2023-02-19T06:46:41.195Z,6.87
2023-02-19T06:52:42.705Z,5.07
2023-02-19T06:58:44.185Z,5.93
2023-02-19T07:04:45.658Z,6.88
2023-02-19T07:10:54.520Z,6.70
2023-02-19T07:16:55.960Z,6.67
2023-02-19T07:22:57.486Z,6.07
2023-02-19T07:28:58.998Z,8.30
2023-02-19T07:35:00.465Z,9.55
2023-02-19T07:41:02.687Z,9.23
2023-02-19T07:47:04.165Z,12.20
2023-02-19T07:53:05.866Z,10.98
2023-02-19T07:59:07.343Z,8.00
2023-02-19T08:05:08.865Z,9.60
2023-02-19T08:11:28.881Z,9.32
2023-02-19T08:17:31.147Z,9.50
2023-02-19T08:23:32.801Z,9.32
2023-02-19T08:29:34.980Z,8.87
2023-02-19T08:35:36.672Z,7.95
2023-02-19T08:41:38.551Z,8.23
2023-02-19T08:47:40.142Z,5.60
2023-02-19T08:53:41.674Z,7.78
2023-02-19T08:59:43.130Z,3.67
2023-02-19T09:05:47.041Z,6.90
2023-02-19T09:11:49.386Z,4.43
2023-02-19T09:17:51.864Z,5.27
2023-02-19T09:23:53.391Z,6.07
2023-02-19T09:29:55.036Z,5.70
2023-02-19T09:35:58.654Z,10.57
2023-02-19T09:42:09.650Z,5.43
2023-02-19T09:48:12.019Z,9.10
2023-02-19T09:54:17.338Z,5.53
2023-02-19T10:00:26.392Z,5.50
2023-02-19T10:06:29.795Z,6.90
2023-02-19T10:12:31.975Z,5.47
2023-02-19T10:18:39.099Z,6.50
2023-02-19T10:24:41.809Z,8.48
2023-02-19T10:30:43.325Z,9.00
2023-02-19T10:36:47.272Z,6.18
2023-02-19T10:42:49.780Z,6.22
2023-02-19T10:49:02.094Z,7.13
2023-02-19T10:55:18.849Z,8.35
2023-02-19T11:01:21.505Z,7.47
2023-02-19T11:07:23.026Z,5.25
2023-02-19T11:13:27.733Z,6.38
2023-02-19T11:19:31.844Z,5.57
2023-02-19T11:25:33.658Z,4.68
2023-02-19T11:31:36.080Z,4.30
2023-02-19T11:37:51.692Z,3.90
2023-02-19T11:44:03.515Z,5.47
2023-02-19T11:50:14.383Z,4.60
2023-02-19T11:56:18.108Z,6.05
2023-02-19T12:02:24.485Z,7.07
2023-02-19T12:08:35.334Z,6.07
2023-02-19T12:14:58.673Z,8.02
2023-02-19T12:21:18.940Z,5.60
2023-02-19T12:27:25.648Z,4.38
2023-02-19T12:33:42.092Z,4.63
2023-02-19T12:40:13.385Z,4.68
2023-02-19T12:46:20.484Z,5.05
2023-02-19T12:52:24.814Z,4.63
2023-02-19T12:58:29.282Z,4.63
2023-02-19T13:04:46.034Z,3.90
2023-02-19T13:10:59.364Z,3.95
2023-02-19T13:17:04.994Z,5.22
2023-02-19T13:23:43.916Z,7.73
2023-02-19T13:29:53.595Z,5.55
2023-02-19T13:36:05.816Z,5.90
2023-02-19T13:42:18.193Z,4.03
2023-02-19T13:48:27.823Z,4.68
2023-02-19T13:54:39.938Z,5.73
2023-02-19T14:00:49.449Z,4.03
2023-02-19T14:07:03.060Z,3.70
2023-02-19T14:13:07.198Z,3.83
2023-02-19T14:19:35.068Z,6.80
2023-02-19T14:25:40.520Z,6.10
2023-02-19T14:31:44.527Z,5.10
2023-02-19T14:37:46.653Z,6.93
2023-02-19T14:43:48.597Z,5.20
2023-02-19T14:49:54.706Z,7.28
2023-02-19T14:55:57.243Z,4.50
2023-02-19T15:02:03.093Z,2.95
2023-02-19T15:08:08.651Z,6.05
2023-02-19T15:14:16.759Z,4.00
2023-02-19T15:20:20.739Z,4.63
2023-02-19T15:26:23.520Z,4.03
2023-02-19T15:32:26.624Z,2.60
2023-02-19T15:38:28.595Z,3.85
2023-02-19T15:44:53.617Z,5.73
2023-02-19T15:50:59.443Z,6.00
2023-02-19T15:57:03.858Z,5.60
2023-02-19T16:03:06.092Z,13.15
2023-02-19T16:09:19.216Z,8.80
2023-02-19T16:15:20.778Z,5.90
2023-02-19T16:21:23.619Z,7.70
2023-02-19T16:27:29.590Z,6.73
2023-02-19T16:33:37.252Z,13.45
2023-02-19T16:39:38.686Z,11.55
2023-02-19T16:45:43.826Z,8.50
2023-02-19T16:51:46.270Z,6.05
2023-02-19T16:57:48.078Z,7.60
2023-02-19T17:03:50.198Z,6.53
2023-02-19T17:09:51.808Z,7.15
2023-02-19T17:15:53.961Z,6.63
2023-02-19T17:21:55.450Z,6.35
2023-02-19T17:27:57.019Z,6.57
2023-02-19T17:33:58.985Z,5.82
2023-02-19T17:40:00.497Z,4.15
2023-02-19T17:46:02.175Z,5.53
2023-02-19T17:52:04.531Z,10.88
2023-02-19T17:58:06.600Z,14.33
2023-02-19T18:04:08.095Z,7.97
2023-02-19T18:10:09.807Z,7.22
2023-02-19T18:16:11.639Z,10.30
2023-02-19T18:22:13.268Z,36.50
2023-02-19T18:28:15.135Z,40.13
2023-02-19T18:34:18.496Z,24.10
2023-02-19T18:40:21.101Z,15.70
2023-02-19T18:46:22.697Z,14.23
2023-02-19T18:52:25.627Z,11.60
2023-02-19T18:58:28.413Z,11.80
2023-02-19T19:04:30.014Z,13.18
2023-02-19T19:10:31.669Z,12.18
2023-02-19T19:16:33.222Z,12.77
2023-02-19T19:22:34.878Z,13.85
2023-02-19T19:28:38.214Z,14.00
2023-02-19T19:34:40.962Z,14.80
2023-02-19T19:40:42.732Z,14.48
2023-02-19T19:46:45.471Z,14.93
2023-02-19T19:52:47.049Z,21.88
2023-02-19T19:58:48.669Z,15.23
2023-02-19T20:04:50.277Z,15.25
2023-02-19T20:10:52.109Z,13.82
2023-02-19T20:16:54.973Z,14.47
2023-02-19T20:22:56.799Z,12.65
2023-02-19T20:28:58.400Z,14.20
2023-02-19T20:35:00.285Z,18.58
2023-02-19T20:41:02.283Z,15.85
2023-02-19T20:47:03.967Z,15.43
2023-02-19T20:53:05.610Z,20.02
2023-02-19T20:59:07.166Z,16.00
2023-02-19T21:05:09.764Z,15.10
2023-02-19T21:11:11.472Z,19.25
2023-02-19T21:17:13.115Z,13.77
2023-02-19T21:23:14.851Z,13.95
2023-02-19T21:29:18.892Z,12.03
2023-02-19T21:35:20.418Z,18.00
2023-02-19T21:41:21.874Z,13.05
2023-02-19T21:47:23.355Z,13.23
2023-02-19T21:53:24.845Z,11.95
2023-02-19T21:59:26.304Z,19.03
2023-02-19T22:05:27.792Z,14.45
2023-02-19T22:11:29.302Z,12.50
2023-02-19T22:17:30.753Z,11.20
2023-02-19T22:23:32.326Z,12.18
2023-02-19T22:29:34.109Z,11.03
2023-02-19T22:35:35.653Z,13.55
2023-02-19T22:41:41.644Z,12.05
2023-02-19T22:47:44.557Z,12.37
2023-02-19T22:53:46.882Z,12.68
2023-02-19T22:59:48.374Z,14.87
2023-02-19T23:05:50.018Z,11.50
2023-02-19T23:11:52.001Z,10.40
2023-02-19T23:17:53.474Z,9.93
2023-02-19T23:23:54.969Z,10.77
2023-02-19T23:29:57.139Z,11.83
2023-02-19T23:35:58.614Z,11.20
2023-02-19T23:42:00.217Z,9.60
2023-02-19T23:48:01.726Z,12.07
2023-02-19T23:54:03.458Z,9.13
